| time (UTC) | temp F | wind direction | speed knots | gust knots | rain 1hr in | rain 24hr in | rain mn in | humidity % | barometer mb |
| 20260901070003 | 56 | 251 | 0.0 | 5.2 | 0.00 | 0.01 | 0.00 | 85 | 1019.8 |
| 20260901065613 | 56 | 245 | 0.0 | 3.5 | 0.00 | 0.01 | 0.00 | 86 | 1019.8 |
| 20260901064506 | 56 | 244 | 0.0 | 2.6 | 0.00 | 0.01 | 0.00 | 87 | 1019.7 |
| 20260901063603 | 55 | 244 | 0.0 | 2.6 | 0.00 | 0.01 | 0.00 | 87 | 1019.5 |
| 20260901062703 | 55 | 243 | 0.0 | 1.7 | 0.00 | 0.01 | 0.00 | 88 | 1019.4 |
| 20260901061803 | 55 | 243 | 0.0 | 0.9 | 0.00 | 0.01 | 0.00 | 88 | 1019.6 |
| 20260901061115 | 55 | 0 | 0.0 | 0.0 | 0.00 | 0.01 | 0.00 | 88 | 1019.5 |
| 20260901060004 | 54 | 244 | 0.0 | 0.9 | 0.00 | 0.01 | 0.00 | 89 | 1019.4 |
| 20260901055614 | 54 | 244 | 0.0 | 0.9 | 0.00 | 0.01 | 0.00 | 89 | 1019.4 |
| 20260901054716 | 54 | 248 | 0.0 | 1.7 | 0.00 | 0.01 | 0.00 | 90 | 1019.2 |
| 20260901053605 | 54 | 273 | 0.0 | 0.9 | 0.00 | 0.01 | 0.00 | 90 | 1019.2 |
| 20260901052705 | 53 | 273 | 0.0 | 0.9 | 0.00 | 0.01 | 0.00 | 90 | 1019.2 |
| 20260901051805 | 53 | 273 | 0.0 | 0.9 | 0.00 | 0.01 | 0.00 | 89 | 1019.1 |
| 20260901050903 | 53 | 0 | 0.0 | 0.0 | 0.00 | 0.01 | 0.00 | 89 | 1019.0 |
| 20260901050003 | 53 | 0 | 0.0 | 0.0 | 0.00 | 0.01 | 0.00 | 89 | 1019.0 |
| 20260901045405 | 53 | 0 | 0.0 | 0.0 | 0.00 | 0.01 | 0.00 | 89 | 1018.9 |
| 20260901044506 | 53 | 274 | 0.0 | 0.9 | 0.00 | 0.01 | 0.00 | 88 | 1018.8 |
| 20260901043814 | 54 | 0 | 0.0 | 0.0 | 0.00 | 0.01 | 0.00 | 88 | 1018.9 |
| 20260901042703 | 54 | 0 | 0.0 | 0.0 | 0.00 | 0.01 | 0.00 | 88 | 1019.0 |
| 20260901041805 | 54 | 0 | 0.0 | 0.0 | 0.00 | 0.01 | 0.00 | 87 | 1019.0 |
| 20260901040905 | 54 | 273 | 0.0 | 0.9 | 0.00 | 0.01 | 0.00 | 87 | 1018.7 |
| 20260901040005 | 54 | 0 | 0.0 | 0.0 | 0.00 | 0.01 | 0.00 | 86 | 1018.8 |
| 20260901035615 | 54 | 273 | 0.0 | 0.9 | 0.00 | 0.01 | 0.00 | 86 | 1018.7 |
| 20260901034504 | 55 | 273 | 0.0 | 0.9 | 0.00 | 0.01 | 0.00 | 86 | 1018.7 |
| 20260901033820 | 55 | 0 | 0.0 | 0.0 | 0.00 | 0.01 | 0.00 | 86 | 1018.7 |
| 20260901032703 | 55 | 0 | 0.0 | 0.0 | 0.00 | 0.01 | 0.00 | 85 | 1018.8 |
| 20260901031803 | 55 | 0 | 0.0 | 0.0 | 0.00 | 0.01 | 0.00 | 84 | 1018.7 |
| 20260901031117 | 55 | 0 | 0.0 | 0.0 | 0.00 | 0.01 | 0.00 | 84 | 1018.8 |
| 20260901030005 | 56 | 0 | 0.0 | 0.0 | 0.00 | 0.01 | 0.00 | 83 | 1018.7 |
| 20260901025405 | 56 | 273 | 0.0 | 0.9 | 0.00 | 0.01 | 0.00 | 83 | 1018.7 |
| 20260901024503 | 56 | 273 | 0.0 | 0.9 | 0.00 | 0.01 | 0.00 | 82 | 1018.8 |
| 20260901023606 | 56 | 273 | 0.0 | 0.9 | 0.00 | 0.01 | 0.00 | 82 | 1018.8 |
| 20260901022705 | 57 | 0 | 0.0 | 0.0 | 0.00 | 0.01 | 0.00 | 81 | 1018.7 |
| 20260901021804 | 57 | 0 | 0.0 | 0.0 | 0.00 | 0.01 | 0.00 | 80 | 1018.7 |
| 20260901020903 | 57 | 0 | 0.0 | 0.0 | 0.00 | 0.01 | 0.00 | 79 | 1018.7 |
| 20260901020005 | 58 | 0 | 0.0 | 0.0 | 0.00 | 0.01 | 0.00 | 79 | 1018.7 |
| 20260901015403 | 58 | 0 | 0.0 | 0.0 | 0.00 | 0.01 | 0.00 | 79 | 1018.6 |
| 20260901014505 | 58 | 0 | 0.0 | 0.0 | 0.00 | 0.01 | 0.00 | 79 | 1018.7 |
| 20260901013816 | 58 | 273 | 0.0 | 0.9 | 0.00 | 0.01 | 0.00 | 78 | 1018.7 |
| 20260901012705 | 58 | 273 | 0.0 | 0.9 | 0.00 | 0.01 | 0.00 | 78 | 1018.6 |
| 20260901011803 | 59 | 273 | 0.0 | 0.9 | 0.00 | 0.01 | 0.00 | 77 | 1018.6 |
| 20260901010906 | 59 | 0 | 0.0 | 0.0 | 0.00 | 0.01 | 0.00 | 76 | 1018.6 |
| 20260901010003 | 60 | 0 | 0.0 | 0.0 | 0.00 | 0.01 | 0.00 | 76 | 1018.6 |
| 20260901005403 | 60 | 273 | 0.0 | 0.9 | 0.00 | 0.01 | 0.00 | 76 | 1018.5 |
| 20260901004505 | 60 | 0 | 0.0 | 0.0 | 0.00 | 0.01 | 0.00 | 75 | 1018.5 |
| 20260901003605 | 60 | 273 | 0.0 | 2.6 | 0.00 | 0.01 | 0.00 | 74 | 1018.5 |
| 20260901002705 | 61 | 273 | 0.0 | 2.6 | 0.00 | 0.01 | 0.00 | 74 | 1018.5 |
| 20260901001803 | 61 | 275 | 0.0 | 0.9 | 0.00 | 0.01 | 0.00 | 73 | 1018.4 |
| 20260901000905 | 61 | 276 | 0.0 | 2.6 | 0.00 | 0.02 | 0.00 | 73 | 1018.5 |
| 20260901000005 | 62 | 279 | 0.0 | 2.6 | 0.00 | 0.02 | 0.00 | 72 | 1018.4 |
| 20260831235403 | 62 | 284 | 0.0 | 0.9 | 0.00 | 0.02 | 0.00 | 72 | 1018.3 |
| 20260831234715 | 62 | 290 | 0.0 | 2.6 | 0.00 | 0.02 | 0.00 | 71 | 1018.4 |
| 20260831233603 | 62 | 238 | 0.0 | 3.5 | 0.00 | 0.02 | 0.00 | 70 | 1018.2 |
| 20260831232705 | 63 | 239 | 0.0 | 3.5 | 0.00 | 0.02 | 0.00 | 70 | 1018.2 |
| 20260831231803 | 63 | 239 | 0.0 | 2.6 | 0.00 | 0.02 | 0.00 | 70 | 1018.1 |
| 20260831230906 | 63 | 252 | 0.0 | 2.6 | 0.00 | 0.02 | 0.00 | 70 | 1018.1 |
| 20260831230003 | 63 | 252 | 0.0 | 1.7 | 0.00 | 0.02 | 0.00 | 69 | 1018.0 |
| 20260831225405 | 63 | 252 | 0.0 | 1.7 | 0.00 | 0.02 | 0.02 | 69 | 1018.1 |
| 20260831224715 | 63 | 252 | 0.0 | 1.7 | 0.00 | 0.02 | 0.02 | 69 | 1018.1 |
| 20260831223604 | 64 | 254 | 0.0 | 2.6 | 0.00 | 0.02 | 0.02 | 68 | 1018.1 |
| 20260831222705 | 64 | 281 | 0.0 | 2.6 | 0.00 | 0.02 | 0.02 | 68 | 1018.0 |
| 20260831221803 | 64 | 307 | 0.0 | 0.9 | 0.00 | 0.02 | 0.02 | 68 | 1017.9 |
| 20260831220906 | 64 | 308 | 0.0 | 0.9 | 0.00 | 0.02 | 0.02 | 68 | 1017.8 |
| 20260831220005 | 64 | 284 | 0.0 | 3.5 | 0.00 | 0.02 | 0.02 | 68 | 1017.8 |
| 20260831215614 | 64 | 273 | 0.0 | 3.5 | 0.00 | 0.02 | 0.02 | 68 | 1017.8 |
| 20260831214504 | 64 | 248 | 0.0 | 2.6 | 0.00 | 0.02 | 0.02 | 68 | 1017.7 |
| 20260831213605 | 64 | 253 | 0.9 | 2.6 | 0.00 | 0.02 | 0.02 | 69 | 1017.7 |
| 20260831212703 | 64 | 271 | 0.0 | 3.5 | 0.00 | 0.02 | 0.02 | 70 | 1017.5 |
| 20260831211803 | 64 | 261 | 0.9 | 3.5 | 0.00 | 0.02 | 0.02 | 71 | 1017.4 |
| 20260831210903 | 64 | 250 | 0.0 | 1.7 | 0.00 | 0.02 | 0.02 | 72 | 1017.5 |
| 20260831210218 | 64 | 250 | 0.0 | 1.7 | 0.00 | 0.02 | 0.02 | 72 | 1017.3 |
| 20260831204717 | 64 | 248 | 0.0 | 1.7 | 0.00 | 0.02 | 0.02 | 72 | 1016.9 |
| 20260831203605 | 65 | 248 | 0.0 | 0.9 | 0.00 | 0.05 | 0.02 | 71 | 1016.7 |
| 20260831202704 | 65 | 248 | 0.0 | 0.9 | 0.00 | 0.05 | 0.02 | 70 | 1016.7 |
| 20260831201803 | 65 | 247 | 0.0 | 1.7 | 0.00 | 0.05 | 0.02 | 69 | 1016.5 |
| 20260831200903 | 66 | 247 | 0.0 | 0.9 | 0.00 | 0.05 | 0.02 | 69 | 1016.5 |
| 20260831200003 | 66 | 249 | 0.0 | 1.7 | 0.00 | 0.05 | 0.02 | 68 | 1016.4 |
| 20260831195404 | 66 | 241 | 0.0 | 2.6 | 0.00 | 0.05 | 0.02 | 68 | 1016.4 |
| 20260831194717 | 66 | 243 | 0.0 | 2.6 | 0.00 | 0.05 | 0.02 | 68 | 1016.4 |
| 20260831193605 | 67 | 253 | 0.0 | 2.6 | 0.00 | 0.05 | 0.02 | 68 | 1016.2 |
| 20260831192917 | 67 | 250 | 0.0 | 1.7 | 0.00 | 0.05 | 0.02 | 68 | 1016.1 |
| 20260831192014 | 67 | 217 | 0.9 | 2.6 | 0.00 | 0.05 | 0.02 | 67 | 1016.0 |
| 20260831190905 | 68 | 254 | 0.9 | 3.5 | 0.00 | 0.05 | 0.02 | 67 | 1016.0 |
| 20260831190004 | 68 | 276 | 0.9 | 3.5 | 0.00 | 0.05 | 0.02 | 66 | 1015.8 |
| 20260831185403 | 68 | 266 | 1.7 | 7.0 | 0.00 | 0.05 | 0.02 | 66 | 1015.7 |
| 20260831184505 | 69 | 262 | 0.9 | 6.1 | 0.00 | 0.05 | 0.02 | 67 | 1015.6 |
| 20260831182703 | 70 | 233 | 1.7 | 7.0 | 0.00 | 0.05 | 0.02 | 65 | 1015.5 |
| 20260831181805 | 70 | 243 | 1.7 | 6.1 | 0.00 | 0.05 | 0.02 | 64 | 1015.3 |
| 20260831180903 | 70 | 253 | 1.7 | 7.0 | 0.00 | 0.05 | 0.02 | 63 | 1015.1 |
| 20260831180005 | 70 | 255 | 1.7 | 6.1 | 0.00 | 0.05 | 0.02 | 64 | 1014.9 |
| 20260831175403 | 70 | 241 | 1.7 | 5.2 | 0.00 | 0.05 | 0.02 | 64 | 1014.8 |
| 20260831174505 | 71 | 249 | 1.7 | 7.8 | 0.00 | 0.05 | 0.02 | 64 | 1014.5 |
| 20260831173603 | 71 | 227 | 1.7 | 7.0 | 0.00 | 0.05 | 0.02 | 65 | 1014.6 |
| 20260831172703 | 71 | 275 | 0.9 | 6.1 | 0.00 | 0.05 | 0.02 | 65 | 1014.5 |
| 20260831171804 | 71 | 325 | 0.0 | 2.6 | 0.00 | 0.05 | 0.02 | 66 | 1014.4 |
| 20260831170903 | 71 | 326 | 0.0 | 3.5 | 0.00 | 0.05 | 0.02 | 66 | 1014.3 |
| 20260831170005 | 71 | 330 | 0.9 | 3.5 | 0.00 | 0.05 | 0.02 | 65 | 1014.1 |
| 20260831165405 | 72 | 328 | 1.7 | 4.3 | 0.00 | 0.05 | 0.02 | 64 | 1014.1 |
| 20260831164505 | 72 | 327 | 0.9 | 4.3 | 0.00 | 0.05 | 0.02 | 64 | 1013.9 |
| 20260831163604 | 72 | 335 | 0.9 | 4.3 | 0.00 | 0.05 | 0.02 | 64 | 1013.7 |
| 20260831162706 | 72 | 340 | 2.6 | 6.1 | 0.00 | 0.05 | 0.02 | 63 | 1013.6 |
| 20260831161805 | 73 | 331 | 1.7 | 7.8 | 0.00 | 0.05 | 0.02 | 63 | 1013.7 |
| 20260831161114 | 73 | 307 | 0.9 | 7.8 | 0.00 | 0.05 | 0.02 | 61 | 1013.6 |
| 20260831160005 | 73 | 307 | 0.9 | 2.6 | 0.00 | 0.05 | 0.02 | 61 | 1013.6 |
| 20260831155403 | 73 | 305 | 0.9 | 2.6 | 0.00 | 0.05 | 0.02 | 60 | 1013.6 |
| 20260831154715 | 73 | 261 | 0.9 | 2.6 | 0.00 | 0.05 | 0.02 | 61 | 1013.5 |
| 20260831153606 | 73 | 240 | 1.7 | 7.0 | 0.00 | 0.05 | 0.02 | 59 | 1013.5 |
| 20260831152703 | 74 | 240 | 1.7 | 6.1 | 0.00 | 0.05 | 0.02 | 58 | 1013.4 |
| 20260831151804 | 74 | 255 | 1.7 | 4.3 | 0.00 | 0.05 | 0.02 | 56 | 1013.2 |
| 20260831150905 | 75 | 273 | 1.7 | 4.3 | 0.00 | 0.05 | 0.02 | 55 | 1013.1 |
| 20260831150217 | 76 | 268 | 1.7 | 3.5 | 0.00 | 0.05 | 0.02 | 55 | 1013.1 |
| 20260831145405 | 76 | 252 | 1.7 | 6.1 | 0.00 | 0.05 | 0.02 | 54 | 1013.1 |
| 20260831144504 | 74 | 285 | 1.7 | 5.2 | 0.00 | 0.05 | 0.02 | 57 | 1013.0 |
| 20260831143603 | 73 | 265 | 0.9 | 7.8 | 0.00 | 0.05 | 0.02 | 57 | 1013.0 |
| 20260831142703 | 74 | 303 | 0.9 | 4.3 | 0.00 | 0.05 | 0.02 | 57 | 1012.8 |
| 20260831141805 | 75 | 292 | 0.9 | 4.3 | 0.00 | 0.05 | 0.02 | 56 | 1012.8 |
| 20260831140903 | 75 | 307 | 0.9 | 7.8 | 0.00 | 0.05 | 0.02 | 57 | 1012.7 |
| 20260831140217 | 74 | 299 | 1.7 | 6.1 | 0.00 | 0.05 | 0.02 | 59 | 1012.6 |
| 20260831135403 | 74 | 252 | 0.9 | 6.1 | 0.00 | 0.05 | 0.02 | 59 | 1012.6 |
| 20260831134505 | 74 | 267 | 0.9 | 9.6 | 0.00 | 0.05 | 0.02 | 59 | 1012.5 |
| 20260831133603 | 75 | 273 | 1.7 | 6.1 | 0.00 | 0.05 | 0.02 | 57 | 1012.6 |
| 20260831132705 | 76 | 264 | 1.7 | 7.0 | 0.00 | 0.05 | 0.02 | 55 | 1012.4 |
| 20260831131805 | 75 | 255 | 1.7 | 6.1 | 0.00 | 0.05 | 0.02 | 55 | 1012.3 |
| 20260831130903 | 75 | 262 | 1.7 | 7.0 | 0.00 | 0.05 | 0.02 | 57 | 1012.2 |
| 20260831130007 | 74 | 252 | 1.7 | 6.1 | 0.00 | 0.05 | 0.02 | 61 | 1012.0 |
| 20260831125403 | 72 | 260 | 1.7 | 4.3 | 0.00 | 0.05 | 0.02 | 63 | 1011.9 |
| 20260831124504 | 71 | 268 | 1.7 | 7.0 | 0.00 | 0.05 | 0.02 | 65 | 1011.9 |
| 20260831123814 | 72 | 251 | 1.7 | 6.1 | 0.00 | 0.05 | 0.02 | 63 | 1011.7 |
| 20260831122704 | 73 | 273 | 1.7 | 6.1 | 0.00 | 0.05 | 0.02 | 60 | 1011.6 |
| 20260831121806 | 74 | 230 | 1.7 | 7.0 | 0.00 | 0.05 | 0.02 | 59 | 1011.4 |
| 20260831120905 | 74 | 249 | 1.7 | 7.0 | 0.00 | 0.05 | 0.02 | 60 | 1011.2 |
| 20260831120003 | 74 | 261 | 1.7 | 6.1 | 0.00 | 0.05 | 0.02 | 60 | 1011.0 |
| 20260831115403 | 74 | 286 | 0.9 | 3.5 | 0.00 | 0.05 | 0.02 | 62 | 1011.0 |
| 20260831114503 | 72 | 315 | 1.7 | 7.0 | 0.01 | 0.05 | 0.02 | 64 | 1010.9 |
| 20260831113603 | 72 | 241 | 1.7 | 4.3 | 0.01 | 0.05 | 0.02 | 64 | 1010.8 |
| 20260831112705 | 71 | 248 | 1.7 | 6.1 | 0.01 | 0.05 | 0.02 | 66 | 1010.7 |
| 20260831111805 | 70 | 294 | 1.7 | 8.7 | 0.01 | 0.05 | 0.02 | 67 | 1010.5 |
| 20260831110906 | 70 | 301 | 1.7 | 6.1 | 0.01 | 0.05 | 0.02 | 67 | 1010.5 |
| 20260831110004 | 69 | 271 | 1.7 | 6.1 | 0.01 | 0.05 | 0.02 | 69 | 1010.3 |
| 20260831105403 | 69 | 286 | 1.7 | 5.2 | 0.01 | 0.05 | 0.02 | 68 | 1010.3 |
| 20260831104508 | 70 | 327 | 0.9 | 4.3 | 0.00 | 0.04 | 0.01 | 68 | 1010.3 |
| 20260831103605 | 69 | 229 | 1.7 | 6.1 | 0.00 | 0.04 | 0.01 | 70 | 1010.2 |
| 20260831102913 | 69 | 271 | 0.9 | 4.3 | 0.00 | 0.04 | 0.01 | 71 | 1010.0 |
| 20260831101803 | 67 | 259 | 0.9 | 3.5 | 0.00 | 0.04 | 0.01 | 74 | 1009.9 |
| 20260831100903 | 67 | 244 | 1.7 | 6.1 | 0.00 | 0.04 | 0.01 | 74 | 1009.8 |
| 20260831100215 | 67 | 245 | 1.7 | 6.1 | 0.00 | 0.04 | 0.01 | 73 | 1009.8 |
| 20260831095403 | 67 | 241 | 0.9 | 3.5 | 0.00 | 0.04 | 0.01 | 74 | 1009.8 |
| 20260831094713 | 67 | 235 | 0.9 | 7.8 | 0.00 | 0.04 | 0.01 | 74 | 1009.7 |
| 20260831093603 | 67 | 255 | 1.7 | 6.1 | 0.00 | 0.04 | 0.01 | 75 | 1009.4 |
| 20260831092703 | 66 | 268 | 0.9 | 6.1 | 0.00 | 0.04 | 0.01 | 76 | 1009.2 |
| 20260831092015 | 65 | 260 | 1.7 | 6.1 | 0.00 | 0.04 | 0.01 | 78 | 1009.2 |
| 20260831090906 | 65 | 264 | 0.9 | 7.0 | 0.00 | 0.04 | 0.01 | 77 | 1009.0 |
| 20260831090006 | 65 | 239 | 0.9 | 5.2 | 0.00 | 0.04 | 0.01 | 77 | 1008.9 |
| 20260831085405 | 65 | 251 | 0.9 | 4.3 | 0.00 | 0.04 | 0.01 | 79 | 1008.9 |
| 20260831084503 | 64 | 257 | 1.7 | 5.2 | 0.00 | 0.04 | 0.01 | 79 | 1008.7 |
| 20260831083603 | 64 | 252 | 1.7 | 7.0 | 0.00 | 0.04 | 0.01 | 79 | 1008.6 |
| 20260831082705 | 64 | 267 | 1.7 | 6.1 | 0.00 | 0.04 | 0.01 | 79 | 1008.3 |
| 20260831082016 | 63 | 262 | 1.7 | 5.2 | 0.00 | 0.04 | 0.01 | 80 | 1008.2 |
| 20260831080905 | 63 | 248 | 1.7 | 6.1 | 0.00 | 0.04 | 0.01 | 79 | 1008.1 |
| 20260831080004 | 63 | 272 | 1.7 | 6.1 | 0.00 | 0.04 | 0.01 | 80 | 1007.9 |
| 20260831075405 | 63 | 257 | 1.7 | 7.0 | 0.00 | 0.04 | 0.01 | 80 | 1007.9 |
| 20260831074504 | 62 | 254 | 1.7 | 6.1 | 0.00 | 0.04 | 0.01 | 81 | 1007.8 |
| 20260831073603 | 62 | 253 | 0.9 | 8.7 | 0.00 | 0.04 | 0.01 | 81 | 1007.5 |
| 20260831072705 | 62 | 245 | 0.9 | 3.5 | 0.00 | 0.04 | 0.01 | 82 | 1007.4 |
| 20260831071803 | 61 | 259 | 1.7 | 5.2 | 0.00 | 0.04 | 0.01 | 83 | 1007.2 |
| 20260831070905 | 60 | 235 | 0.9 | 7.0 | 0.00 | 0.04 | 0.01 | 84 | 1007.2 |